sensor_id;sensor_type;location;lat;lon;timestamp;pressure;altitude;pressure_sealevel;temperature;humidity
13732;BME280;6937;56.096;12.664;2022-07-17T00:02:04;102550.16;;;14.57;100.00
13732;BME280;6937;56.096;12.664;2022-07-17T00:04:30;102564.28;;;14.61;100.00
13732;BME280;6937;56.096;12.664;2022-07-17T00:06:55;102562.53;;;14.60;100.00
13732;BME280;6937;56.096;12.664;2022-07-17T00:09:20;102567.38;;;14.55;100.00
13732;BME280;6937;56.096;12.664;2022-07-17T00:11:46;102576.78;;;14.62;100.00
13732;BME280;6937;56.096;12.664;2022-07-17T00:14:12;102579.38;;;14.63;100.00
13732;BME280;6937;56.096;12.664;2022-07-17T00:16:37;102582.00;;;14.65;100.00
13732;BME280;6937;56.096;12.664;2022-07-17T00:19:03;102591.81;;;14.66;100.00
13732;BME280;6937;56.096;12.664;2022-07-17T00:21:28;102598.03;;;14.66;100.00
13732;BME280;6937;56.096;12.664;2022-07-17T00:23:54;102609.66;;;14.67;100.00
13732;BME280;6937;56.096;12.664;2022-07-17T00:26:19;102616.78;;;14.68;100.00
13732;BME280;6937;56.096;12.664;2022-07-17T00:28:44;102599.28;;;14.61;100.00
13732;BME280;6937;56.096;12.664;2022-07-17T00:31:10;102613.34;;;14.66;100.00
13732;BME280;6937;56.096;12.664;2022-07-17T00:33:35;102628.69;;;14.64;100.00
13732;BME280;6937;56.096;12.664;2022-07-17T00:36:01;102611.19;;;14.57;100.00
13732;BME280;6937;56.096;12.664;2022-07-17T00:38:26;102599.66;;;14.55;100.00
13732;BME280;6937;56.096;12.664;2022-07-17T00:40:55;102593.22;;;14.57;100.00
13732;BME280;6937;56.096;12.664;2022-07-17T00:43:22;102570.66;;;14.44;100.00
13732;BME280;6937;56.096;12.664;2022-07-17T00:45:58;102590.59;;;14.56;100.00
13732;BME280;6937;56.096;12.664;2022-07-17T00:48:23;102596.34;;;14.49;100.00
13732;BME280;6937;56.096;12.664;2022-07-17T00:50:49;102593.00;;;14.46;100.00
13732;BME280;6937;56.096;12.664;2022-07-17T00:53:15;102584.31;;;14.41;100.00
13732;BME280;6937;56.096;12.664;2022-07-17T00:55:41;102590.19;;;14.47;100.00
13732;BME280;6937;56.096;12.664;2022-07-17T00:58:07;102588.28;;;14.49;100.00
13732;BME280;6937;56.096;12.664;2022-07-17T01:00:33;102616.81;;;14.52;100.00
13732;BME280;6937;56.096;12.664;2022-07-17T01:02:58;102628.38;;;14.54;100.00
13732;BME280;6937;56.096;12.664;2022-07-17T01:05:24;102622.13;;;14.54;100.00
13732;BME280;6937;56.096;12.664;2022-07-17T01:07:50;102600.94;;;14.47;100.00
13732;BME280;6937;56.096;12.664;2022-07-17T01:10:17;102600.13;;;14.47;100.00
13732;BME280;6937;56.096;12.664;2022-07-17T01:12:44;102586.72;;;14.45;100.00
13732;BME280;6937;56.096;12.664;2022-07-17T01:15:10;102582.41;;;14.43;100.00
13732;BME280;6937;56.096;12.664;2022-07-17T01:17:36;102572.88;;;14.37;100.00
13732;BME280;6937;56.096;12.664;2022-07-17T01:20:04;102600.00;;;14.48;100.00
13732;BME280;6937;56.096;12.664;2022-07-17T01:22:29;102575.75;;;14.34;100.00
13732;BME280;6937;56.096;12.664;2022-07-17T01:24:55;102596.44;;;14.48;100.00
13732;BME280;6937;56.096;12.664;2022-07-17T01:27:20;102598.25;;;14.47;100.00
13732;BME280;6937;56.096;12.664;2022-07-17T01:29:45;102599.13;;;14.48;100.00
13732;BME280;6937;56.096;12.664;2022-07-17T01:32:11;102591.25;;;14.45;100.00
13732;BME280;6937;56.096;12.664;2022-07-17T01:34:36;102593.06;;;14.44;100.00
13732;BME280;6937;56.096;12.664;2022-07-17T01:37:02;102566.84;;;14.32;100.00
13732;BME280;6937;56.096;12.664;2022-07-17T01:39:27;102593.94;;;14.45;100.00
13732;BME280;6937;56.096;12.664;2022-07-17T01:42:16;102593.25;;;14.41;100.00
13732;BME280;6937;56.096;12.664;2022-07-17T01:44:41;102602.19;;;14.42;100.00
13732;BME280;6937;56.096;12.664;2022-07-17T01:47:07;102598.72;;;14.40;100.00
13732;BME280;6937;56.096;12.664;2022-07-17T01:49:32;102575.22;;;14.28;100.00
13732;BME280;6937;56.096;12.664;2022-07-17T01:51:57;102591.78;;;14.36;100.00
13732;BME280;6937;56.096;12.664;2022-07-17T01:54:26;102583.63;;;14.37;100.00
13732;BME280;6937;56.096;12.664;2022-07-17T01:56:51;102600.81;;;14.35;100.00
13732;BME280;6937;56.096;12.664;2022-07-17T01:59:16;102607.06;;;14.35;100.00
13732;BME280;6937;56.096;12.664;2022-07-17T02:01:42;102624.06;;;14.36;100.00
13732;BME280;6937;56.096;12.664;2022-07-17T02:04:07;102636.50;;;14.38;100.00
13732;BME280;6937;56.096;12.664;2022-07-17T02:06:33;102655.31;;;14.38;100.00
13732;BME280;6937;56.096;12.664;2022-07-17T02:08:58;102670.50;;;14.39;100.00
13732;BME280;6937;56.096;12.664;2022-07-17T02:11:23;102659.81;;;14.38;100.00
13732;BME280;6937;56.096;12.664;2022-07-17T02:13:49;102667.09;;;14.36;100.00
13732;BME280;6937;56.096;12.664;2022-07-17T02:16:14;102668.13;;;14.33;100.00
13732;BME280;6937;56.096;12.664;2022-07-17T02:18:39;102656.59;;;14.31;100.00
13732;BME280;6937;56.096;12.664;2022-07-17T02:21:05;102640.97;;;14.22;100.00
13732;BME280;6937;56.096;12.664;2022-07-17T02:23:30;102677.72;;;14.39;100.00
13732;BME280;6937;56.096;12.664;2022-07-17T02:25:56;102697.31;;;14.41;100.00
13732;BME280;6937;56.096;12.664;2022-07-17T02:28:21;102704.31;;;14.43;100.00
13732;BME280;6937;56.096;12.664;2022-07-17T02:30:47;102720.66;;;14.40;100.00
13732;BME280;6937;56.096;12.664;2022-07-17T02:33:13;102727.00;;;14.39;100.00
13732;BME280;6937;56.096;12.664;2022-07-17T02:35:38;102729.13;;;14.33;100.00
13732;BME280;6937;56.096;12.664;2022-07-17T02:38:04;102726.00;;;14.25;100.00
13732;BME280;6937;56.096;12.664;2022-07-17T02:40:29;102750.81;;;14.30;100.00
13732;BME280;6937;56.096;12.664;2022-07-17T02:42:54;102766.66;;;14.36;100.00
13732;BME280;6937;56.096;12.664;2022-07-17T02:45:20;102785.31;;;14.39;100.00
13732;BME280;6937;56.096;12.664;2022-07-17T02:47:53;102793.47;;;14.37;100.00
13732;BME280;6937;56.096;12.664;2022-07-17T02:50:20;102803.28;;;14.38;100.00
13732;BME280;6937;56.096;12.664;2022-07-17T02:52:46;102810.81;;;14.32;100.00
13732;BME280;6937;56.096;12.664;2022-07-17T02:55:11;102817.63;;;14.39;100.00
13732;BME280;6937;56.096;12.664;2022-07-17T02:57:38;102806.38;;;14.31;100.00
13732;BME280;6937;56.096;12.664;2022-07-17T03:00:05;102836.34;;;14.40;100.00
13732;BME280;6937;56.096;12.664;2022-07-17T03:02:31;102855.53;;;14.34;100.00
13732;BME280;6937;56.096;12.664;2022-07-17T03:04:57;102880.09;;;14.44;100.00
13732;BME280;6937;56.096;12.664;2022-07-17T03:07:22;102887.28;;;14.43;100.00
13732;BME280;6937;56.096;12.664;2022-07-17T03:09:48;102909.63;;;14.45;100.00
13732;BME280;6937;56.096;12.664;2022-07-17T03:12:13;102929.22;;;14.47;100.00
13732;BME280;6937;56.096;12.664;2022-07-17T03:14:38;102911.13;;;14.34;100.00
13732;BME280;6937;56.096;12.664;2022-07-17T03:17:04;102940.69;;;14.51;100.00
13732;BME280;6937;56.096;12.664;2022-07-17T03:19:29;102948.06;;;14.47;100.00
13732;BME280;6937;56.096;12.664;2022-07-17T03:21:55;102967.78;;;14.48;100.00
13732;BME280;6937;56.096;12.664;2022-07-17T03:24:20;102972.16;;;14.50;100.00
13732;BME280;6937;56.096;12.664;2022-07-17T03:26:45;102979.25;;;14.51;100.00
13732;BME280;6937;56.096;12.664;2022-07-17T03:29:11;102961.84;;;14.41;100.00
13732;BME280;6937;56.096;12.664;2022-07-17T03:31:36;102975.78;;;14.49;100.00
13732;BME280;6937;56.096;12.664;2022-07-17T03:34:02;102962.56;;;14.45;100.00
13732;BME280;6937;56.096;12.664;2022-07-17T03:36:27;102977.34;;;14.54;100.00
13732;BME280;6937;56.096;12.664;2022-07-17T03:38:52;102988.13;;;14.54;100.00
13732;BME280;6937;56.096;12.664;2022-07-17T03:41:18;102967.53;;;14.52;100.00
13732;BME280;6937;56.096;12.664;2022-07-17T03:43:43;102982.75;;;14.54;100.00
13732;BME280;6937;56.096;12.664;2022-07-17T03:46:08;102959.22;;;14.57;100.00
13732;BME280;6937;56.096;12.664;2022-07-17T03:48:34;102963.66;;;14.58;100.00
13732;BME280;6937;56.096;12.664;2022-07-17T03:50:59;102949.09;;;14.45;100.00
13732;BME280;6937;56.096;12.664;2022-07-17T03:53:25;102955.81;;;14.54;100.00
13732;BME280;6937;56.096;12.664;2022-07-17T03:55:50;102970.16;;;14.54;100.00
13732;BME280;6937;56.096;12.664;2022-07-17T03:58:16;102975.53;;;14.54;100.00
13732;BME280;6937;56.096;12.664;2022-07-17T04:00:41;102996.09;;;14.55;100.00
13732;BME280;6937;56.096;12.664;2022-07-17T04:03:06;102987.25;;;14.53;100.00
13732;BME280;6937;56.096;12.664;2022-07-17T04:05:32;102998.19;;;14.50;100.00
13732;BME280;6937;56.096;12.664;2022-07-17T04:07:57;103025.09;;;14.50;100.00
13732;BME280;6937;56.096;12.664;2022-07-17T04:10:23;103019.78;;;14.48;100.00
13732;BME280;6937;56.096;12.664;2022-07-17T04:12:49;103028.91;;;14.46;100.00
13732;BME280;6937;56.096;12.664;2022-07-17T04:15:14;103034.28;;;14.46;100.00
13732;BME280;6937;56.096;12.664;2022-07-17T04:17:59;103042.41;;;14.44;100.00
13732;BME280;6937;56.096;12.664;2022-07-17T04:20:25;103053.88;;;14.48;100.00
13732;BME280;6937;56.096;12.664;2022-07-17T04:22:50;103034.84;;;14.35;100.00
13732;BME280;6937;56.096;12.664;2022-07-17T04:25:16;103063.72;;;14.49;100.00
13732;BME280;6937;56.096;12.664;2022-07-17T04:27:41;103058.66;;;14.43;100.00
13732;BME280;6937;56.096;12.664;2022-07-17T04:30:07;103056.75;;;14.45;100.00
13732;BME280;6937;56.096;12.664;2022-07-17T04:32:32;103048.50;;;14.48;100.00
13732;BME280;6937;56.096;12.664;2022-07-17T04:34:57;103040.44;;;14.48;100.00
13732;BME280;6937;56.096;12.664;2022-07-17T04:37:23;103038.78;;;14.45;100.00
13732;BME280;6937;56.096;12.664;2022-07-17T04:39:48;103051.28;;;14.46;100.00
13732;BME280;6937;56.096;12.664;2022-07-17T04:42:14;103062.94;;;14.47;100.00
13732;BME280;6937;56.096;12.664;2022-07-17T04:44:39;103073.53;;;14.50;100.00
13732;BME280;6937;56.096;12.664;2022-07-17T04:47:05;103081.59;;;14.50;100.00
13732;BME280;6937;56.096;12.664;2022-07-17T04:49:30;103094.25;;;14.48;100.00
13732;BME280;6937;56.096;12.664;2022-07-17T04:51:56;103110.34;;;14.49;100.00
13732;BME280;6937;56.096;12.664;2022-07-17T04:54:21;103113.09;;;14.48;100.00
13732;BME280;6937;56.096;12.664;2022-07-17T04:56:46;103109.69;;;14.44;100.00
13732;BME280;6937;56.096;12.664;2022-07-17T04:59:12;103097.69;;;14.33;100.00
13732;BME280;6937;56.096;12.664;2022-07-17T05:01:37;103114.91;;;14.47;100.00
13732;BME280;6937;56.096;12.664;2022-07-17T05:04:03;103107.16;;;14.41;100.00
13732;BME280;6937;56.096;12.664;2022-07-17T05:06:29;103126.53;;;14.48;100.00
13732;BME280;6937;56.096;12.664;2022-07-17T05:08:55;103135.50;;;14.48;100.00
13732;BME280;6937;56.096;12.664;2022-07-17T05:11:20;103128.34;;;14.47;100.00
13732;BME280;6937;56.096;12.664;2022-07-17T05:13:46;103124.19;;;14.42;100.00
13732;BME280;6937;56.096;12.664;2022-07-17T05:16:11;103144.38;;;14.50;100.00
13732;BME280;6937;56.096;12.664;2022-07-17T05:18:36;103131.00;;;14.49;100.00
13732;BME280;6937;56.096;12.664;2022-07-17T05:21:02;103128.13;;;14.52;100.00
13732;BME280;6937;56.096;12.664;2022-07-17T05:23:27;103104.31;;;14.44;100.00
13732;BME280;6937;56.096;12.664;2022-07-17T05:25:53;103119.75;;;14.58;100.00
13732;BME280;6937;56.096;12.664;2022-07-17T05:28:18;103130.38;;;14.61;100.00
13732;BME280;6937;56.096;12.664;2022-07-17T05:30:43;103131.25;;;14.62;100.00
13732;BME280;6937;56.096;12.664;2022-07-17T05:33:09;103118.50;;;14.65;100.00
13732;BME280;6937;56.096;12.664;2022-07-17T05:35:34;103130.13;;;14.66;100.00
13732;BME280;6937;56.096;12.664;2022-07-17T05:38:00;103121.19;;;14.65;100.00
13732;BME280;6937;56.096;12.664;2022-07-17T05:40:25;103136.13;;;14.71;100.00
13732;BME280;6937;56.096;12.664;2022-07-17T05:42:51;103138.91;;;14.69;100.00
13732;BME280;6937;56.096;12.664;2022-07-17T05:45:16;103162.19;;;14.70;100.00
13732;BME280;6937;56.096;12.664;2022-07-17T05:47:42;103147.72;;;14.73;100.00
13732;BME280;6937;56.096;12.664;2022-07-17T05:50:07;103135.91;;;14.75;100.00
13732;BME280;6937;56.096;12.664;2022-07-17T05:52:33;103149.19;;;14.78;100.00
13732;BME280;6937;56.096;12.664;2022-07-17T05:54:58;103150.72;;;14.84;100.00
13732;BME280;6937;56.096;12.664;2022-07-17T05:57:23;103155.81;;;14.88;100.00
13732;BME280;6937;56.096;12.664;2022-07-17T05:59:49;103163.91;;;14.88;100.00
13732;BME280;6937;56.096;12.664;2022-07-17T06:02:14;103173.91;;;14.86;100.00
13732;BME280;6937;56.096;12.664;2022-07-17T06:04:39;103164.25;;;14.82;100.00
13732;BME280;6937;56.096;12.664;2022-07-17T06:07:05;103144.84;;;14.76;100.00
13732;BME280;6937;56.096;12.664;2022-07-17T06:09:30;103167.63;;;14.86;100.00
13732;BME280;6937;56.096;12.664;2022-07-17T06:11:57;103163.91;;;14.88;100.00
13732;BME280;6937;56.096;12.664;2022-07-17T06:14:22;103148.63;;;14.89;100.00
13732;BME280;6937;56.096;12.664;2022-07-17T06:16:49;103154.13;;;14.87;100.00
13732;BME280;6937;56.096;12.664;2022-07-17T06:19:15;103165.81;;;14.86;100.00
13732;BME280;6937;56.096;12.664;2022-07-17T06:21:40;103169.47;;;14.85;100.00
13732;BME280;6937;56.096;12.664;2022-07-17T06:24:06;103163.31;;;14.83;100.00
13732;BME280;6937;56.096;12.664;2022-07-17T06:26:31;103176.59;;;14.86;100.00
13732;BME280;6937;56.096;12.664;2022-07-17T06:28:57;103178.25;;;14.89;100.00
13732;BME280;6937;56.096;12.664;2022-07-17T06:31:23;103183.91;;;14.84;100.00
13732;BME280;6937;56.096;12.664;2022-07-17T06:33:48;103198.78;;;14.91;100.00
13732;BME280;6937;56.096;12.664;2022-07-17T06:36:13;103194.28;;;14.92;100.00
13732;BME280;6937;56.096;12.664;2022-07-17T06:38:39;103209.06;;;15.00;100.00
13732;BME280;6937;56.096;12.664;2022-07-17T06:41:04;103211.69;;;15.02;100.00
13732;BME280;6937;56.096;12.664;2022-07-17T06:43:30;103216.03;;;15.05;100.00
13732;BME280;6937;56.096;12.664;2022-07-17T06:45:55;103215.81;;;15.09;100.00
13732;BME280;6937;56.096;12.664;2022-07-17T06:48:21;103226.09;;;15.18;100.00
13732;BME280;6937;56.096;12.664;2022-07-17T06:50:47;103219.56;;;15.22;100.00
13732;BME280;6937;56.096;12.664;2022-07-17T06:53:13;103208.50;;;15.28;100.00
13732;BME280;6937;56.096;12.664;2022-07-17T06:55:38;103201.81;;;15.35;100.00
13732;BME280;6937;56.096;12.664;2022-07-17T06:58:04;103203.16;;;15.44;100.00
13732;BME280;6937;56.096;12.664;2022-07-17T07:00:29;103205.47;;;15.52;100.00
13732;BME280;6937;56.096;12.664;2022-07-17T07:02:55;103198.97;;;15.56;100.00
13732;BME280;6937;56.096;12.664;2022-07-17T07:05:20;103203.19;;;15.60;100.00
13732;BME280;6937;56.096;12.664;2022-07-17T07:07:46;103195.13;;;15.60;100.00
13732;BME280;6937;56.096;12.664;2022-07-17T07:10:11;103212.44;;;15.71;100.00
13732;BME280;6937;56.096;12.664;2022-07-17T07:12:37;103201.66;;;15.71;100.00
13732;BME280;6937;56.096;12.664;2022-07-17T07:15:02;103205.81;;;15.61;100.00
13732;BME280;6937;56.096;12.664;2022-07-17T07:17:28;103211.47;;;15.57;100.00
13732;BME280;6937;56.096;12.664;2022-07-17T07:19:53;103231.13;;;15.59;100.00
13732;BME280;6937;56.096;12.664;2022-07-17T07:22:19;103224.06;;;15.56;100.00
13732;BME280;6937;56.096;12.664;2022-07-17T07:24:44;103241.94;;;15.59;100.00
13732;BME280;6937;56.096;12.664;2022-07-17T07:27:10;103245.72;;;15.55;100.00
13732;BME280;6937;56.096;12.664;2022-07-17T07:29:35;103251.84;;;15.58;100.00
13732;BME280;6937;56.096;12.664;2022-07-17T07:32:00;103265.94;;;15.63;100.00
13732;BME280;6937;56.096;12.664;2022-07-17T07:34:26;103265.78;;;15.66;100.00
13732;BME280;6937;56.096;12.664;2022-07-17T07:36:52;103266.72;;;15.65;100.00
13732;BME280;6937;56.096;12.664;2022-07-17T07:39:18;103264.09;;;15.64;100.00
13732;BME280;6937;56.096;12.664;2022-07-17T07:41:43;103266.47;;;15.70;100.00
13732;BME280;6937;56.096;12.664;2022-07-17T07:44:09;103274.47;;;15.71;100.00
13732;BME280;6937;56.096;12.664;2022-07-17T07:46:34;103280.84;;;15.70;100.00
13732;BME280;6937;56.096;12.664;2022-07-17T07:49:00;103280.13;;;15.67;100.00
13732;BME280;6937;56.096;12.664;2022-07-17T07:51:26;103292.75;;;15.66;100.00
13732;BME280;6937;56.096;12.664;2022-07-17T07:53:51;103286.88;;;15.58;100.00
13732;BME280;6937;56.096;12.664;2022-07-17T07:56:17;103291.75;;;15.67;100.00
13732;BME280;6937;56.096;12.664;2022-07-17T07:58:42;103277.03;;;15.57;100.00
13732;BME280;6937;56.096;12.664;2022-07-17T08:01:07;103284.97;;;15.60;100.00
13732;BME280;6937;56.096;12.664;2022-07-17T08:03:33;103305.50;;;15.63;100.00
13732;BME280;6937;56.096;12.664;2022-07-17T08:05:58;103292.75;;;15.66;100.00
13732;BME280;6937;56.096;12.664;2022-07-17T08:08:24;103300.59;;;15.71;100.00
13732;BME280;6937;56.096;12.664;2022-07-17T08:10:49;103301.19;;;15.76;100.00
13732;BME280;6937;56.096;12.664;2022-07-17T08:13:14;103295.72;;;15.77;100.00
13732;BME280;6937;56.096;12.664;2022-07-17T08:15:40;103305.69;;;15.92;100.00
13732;BME280;6937;56.096;12.664;2022-07-17T08:18:06;103278.63;;;15.94;100.00
13732;BME280;6937;56.096;12.664;2022-07-17T08:20:31;103298.19;;;15.98;100.00
13732;BME280;6937;56.096;12.664;2022-07-17T08:22:57;103298.66;;;16.06;100.00
13732;BME280;6937;56.096;12.664;2022-07-17T08:25:22;103320.69;;;16.14;100.00
13732;BME280;6937;56.096;12.664;2022-07-17T08:27:47;103279.59;;;16.09;100.00
13732;BME280;6937;56.096;12.664;2022-07-17T08:30:13;103280.91;;;16.17;100.00
13732;BME280;6937;56.096;12.664;2022-07-17T08:32:39;103274.63;;;16.17;100.00
13732;BME280;6937;56.096;12.664;2022-07-17T08:35:06;103277.84;;;16.23;100.00
13732;BME280;6937;56.096;12.664;2022-07-17T08:37:59;103246.19;;;16.27;100.00
13732;BME280;6937;56.096;12.664;2022-07-17T08:40:30;103252.63;;;16.40;100.00
13732;BME280;6937;56.096;12.664;2022-07-17T08:42:58;103238.00;;;16.44;100.00
13732;BME280;6937;56.096;12.664;2022-07-17T08:45:24;103228.66;;;16.50;100.00
13732;BME280;6937;56.096;12.664;2022-07-17T08:47:51;103214.88;;;16.54;100.00
13732;BME280;6937;56.096;12.664;2022-07-17T08:50:25;103202.81;;;16.61;100.00
13732;BME280;6937;56.096;12.664;2022-07-17T08:52:51;103167.16;;;16.55;100.00
13732;BME280;6937;56.096;12.664;2022-07-17T08:55:16;103136.38;;;16.43;100.00
13732;BME280;6937;56.096;12.664;2022-07-17T08:57:44;103126.78;;;16.53;100.00
13732;BME280;6937;56.096;12.664;2022-07-17T09:00:12;103099.66;;;16.55;100.00
13732;BME280;6937;56.096;12.664;2022-07-17T09:02:38;103076.25;;;16.55;100.00
13732;BME280;6937;56.096;12.664;2022-07-17T09:05:05;103064.13;;;16.62;100.00
13732;BME280;6937;56.096;12.664;2022-07-17T09:07:32;103039.16;;;16.59;100.00
13732;BME280;6937;56.096;12.664;2022-07-17T09:09:57;103034.63;;;16.59;100.00
13732;BME280;6937;56.096;12.664;2022-07-17T09:12:28;103021.59;;;16.66;100.00
13732;BME280;6937;56.096;12.664;2022-07-17T09:14:53;103029.16;;;16.75;100.00
13732;BME280;6937;56.096;12.664;2022-07-17T09:17:19;103004.91;;;16.73;100.00
13732;BME280;6937;56.096;12.664;2022-07-17T09:19:45;102991.59;;;16.84;100.00
13732;BME280;6937;56.096;12.664;2022-07-17T09:22:13;102998.75;;;17.00;100.00
13732;BME280;6937;56.096;12.664;2022-07-17T09:24:56;102978.00;;;17.00;100.00
13732;BME280;6937;56.096;12.664;2022-07-17T09:29:57;102951.31;;;17.22;100.00
13732;BME280;6937;56.096;12.664;2022-07-17T09:32:25;102908.38;;;17.18;100.00
13732;BME280;6937;56.096;12.664;2022-07-17T09:34:54;102893.03;;;17.18;100.00
13732;BME280;6937;56.096;12.664;2022-07-17T09:37:22;102845.84;;;17.10;100.00
13732;BME280;6937;56.096;12.664;2022-07-17T09:39:49;102854.09;;;17.21;100.00
13732;BME280;6937;56.096;12.664;2022-07-17T09:42:41;102822.88;;;17.17;100.00
13732;BME280;6937;56.096;12.664;2022-07-17T09:45:09;102809.91;;;17.22;100.00
13732;BME280;6937;56.096;12.664;2022-07-17T09:47:36;102815.03;;;17.39;100.00
13732;BME280;6937;56.096;12.664;2022-07-17T09:50:04;102820.59;;;17.63;100.00
13732;BME280;6937;56.096;12.664;2022-07-17T09:52:32;102777.13;;;17.66;100.00
13732;BME280;6937;56.096;12.664;2022-07-17T09:54:59;102749.09;;;17.54;100.00
13732;BME280;6937;56.096;12.664;2022-07-17T09:57:28;102740.97;;;17.42;100.00
13732;BME280;6937;56.096;12.664;2022-07-17T09:59:55;102736.50;;;17.40;100.00
13732;BME280;6937;56.096;12.664;2022-07-17T10:02:21;102733.72;;;17.42;100.00
13732;BME280;6937;56.096;12.664;2022-07-17T10:04:47;102744.88;;;17.50;100.00
13732;BME280;6937;56.096;12.664;2022-07-17T10:07:13;102745.91;;;17.48;100.00
13732;BME280;6937;56.096;12.664;2022-07-17T10:09:39;102731.97;;;17.41;100.00
13732;BME280;6937;56.096;12.664;2022-07-17T10:12:05;102728.09;;;17.45;100.00
13732;BME280;6937;56.096;12.664;2022-07-17T10:14:32;102752.50;;;17.44;100.00
13732;BME280;6937;56.096;12.664;2022-07-17T10:17:09;102793.91;;;17.58;100.00
13732;BME280;6937;56.096;12.664;2022-07-17T10:19:46;102779.41;;;17.72;100.00
13732;BME280;6937;56.096;12.664;2022-07-17T10:22:12;102772.94;;;17.62;100.00
13732;BME280;6937;56.096;12.664;2022-07-17T10:24:46;102769.38;;;17.47;100.00
13732;BME280;6937;56.096;12.664;2022-07-17T10:27:23;102772.31;;;17.44;100.00
13732;BME280;6937;56.096;12.664;2022-07-17T10:32:30;102779.03;;;17.51;100.00
13732;BME280;6937;56.096;12.664;2022-07-17T10:35:06;102769.19;;;17.50;100.00
13732;BME280;6937;56.096;12.664;2022-07-17T10:37:39;102788.06;;;17.64;100.00
13732;BME280;6937;56.096;12.664;2022-07-17T10:42:47;102779.06;;;17.89;100.00
13732;BME280;6937;56.096;12.664;2022-07-17T10:45:21;102790.84;;;18.13;100.00
13732;BME280;6937;56.096;12.664;2022-07-17T10:48:06;102807.59;;;18.31;100.00
13732;BME280;6937;56.096;12.664;2022-07-17T10:50:47;102802.16;;;18.44;100.00
13732;BME280;6937;56.096;12.664;2022-07-17T10:53:30;102769.78;;;18.42;100.00
13732;BME280;6937;56.096;12.664;2022-07-17T10:55:57;102771.22;;;18.22;100.00
13732;BME280;6937;56.096;12.664;2022-07-17T10:58:28;102741.25;;;18.13;100.00
13732;BME280;6937;56.096;12.664;2022-07-17T11:01:05;102752.63;;;18.18;100.00
13732;BME280;6937;56.096;12.664;2022-07-17T11:03:35;102755.22;;;18.19;100.00
13732;BME280;6937;56.096;12.664;2022-07-17T11:06:09;102765.38;;;18.28;100.00
13732;BME280;6937;56.096;12.664;2022-07-17T11:08:41;102747.31;;;18.29;100.00
13732;BME280;6937;56.096;12.664;2022-07-17T11:11:06;102735.06;;;18.23;100.00
13732;BME280;6937;56.096;12.664;2022-07-17T11:13:31;102722.50;;;18.22;100.00
13732;BME280;6937;56.096;12.664;2022-07-17T11:15:57;102739.50;;;18.24;100.00
13732;BME280;6937;56.096;12.664;2022-07-17T11:18:22;102775.72;;;18.47;100.00
13732;BME280;6937;56.096;12.664;2022-07-17T11:20:50;102803.56;;;18.62;100.00
13732;BME280;6937;56.096;12.664;2022-07-17T11:23:16;102766.50;;;18.50;100.00
13732;BME280;6937;56.096;12.664;2022-07-17T11:26:05;102770.09;;;18.63;100.00
13732;BME280;6937;56.096;12.664;2022-07-17T11:28:33;102777.75;;;18.69;100.00
13732;BME280;6937;56.096;12.664;2022-07-17T11:31:01;102791.34;;;18.80;100.00
13732;BME280;6937;56.096;12.664;2022-07-17T11:33:26;102802.19;;;18.80;100.00
13732;BME280;6937;56.096;12.664;2022-07-17T11:35:52;102791.50;;;18.90;100.00
13732;BME280;6937;56.096;12.664;2022-07-17T11:38:28;102768.06;;;18.77;100.00
13732;BME280;6937;56.096;12.664;2022-07-17T11:40:54;102790.88;;;18.86;100.00
13732;BME280;6937;56.096;12.664;2022-07-17T11:43:20;102786.78;;;18.80;100.00
13732;BME280;6937;56.096;12.664;2022-07-17T11:45:46;102785.59;;;18.85;100.00
13732;BME280;6937;56.096;12.664;2022-07-17T11:48:11;102804.28;;;19.00;100.00
13732;BME280;6937;56.096;12.664;2022-07-17T11:50:37;102786.63;;;18.95;100.00
13732;BME280;6937;56.096;12.664;2022-07-17T11:53:04;102832.06;;;19.15;100.00
13732;BME280;6937;56.096;12.664;2022-07-17T11:55:36;102787.19;;;19.11;100.00
13732;BME280;6937;56.096;12.664;2022-07-17T11:58:02;102784.25;;;19.14;100.00
13732;BME280;6937;56.096;12.664;2022-07-17T12:00:28;102809.06;;;19.31;100.00
13732;BME280;6937;56.096;12.664;2022-07-17T12:03:01;102758.88;;;19.15;100.00
13732;BME280;6937;56.096;12.664;2022-07-17T12:05:28;102807.50;;;19.40;100.00
13732;BME280;6937;56.096;12.664;2022-07-17T12:07:54;102809.03;;;19.44;100.00
13732;BME280;6937;56.096;12.664;2022-07-17T12:10:22;102775.31;;;19.36;100.00
13732;BME280;6937;56.096;12.664;2022-07-17T12:12:53;102790.25;;;19.41;100.00
13732;BME280;6937;56.096;12.664;2022-07-17T12:15:20;102822.00;;;19.52;100.00
13732;BME280;6937;56.096;12.664;2022-07-17T12:17:45;102803.13;;;19.50;100.00
13732;BME280;6937;56.096;12.664;2022-07-17T12:20:11;102827.34;;;19.64;100.00
13732;BME280;6937;56.096;12.664;2022-07-17T12:23:02;102785.50;;;19.45;100.00
13732;BME280;6937;56.096;12.664;2022-07-17T12:25:28;102793.06;;;19.40;100.00
13732;BME280;6937;56.096;12.664;2022-07-17T12:27:54;102819.66;;;19.47;100.00
13732;BME280;6937;56.096;12.664;2022-07-17T12:30:19;102807.69;;;19.50;100.00
13732;BME280;6937;56.096;12.664;2022-07-17T12:32:45;102811.41;;;19.49;100.00
13732;BME280;6937;56.096;12.664;2022-07-17T12:35:13;102800.25;;;19.41;100.00
13732;BME280;6937;56.096;12.664;2022-07-17T12:37:38;102834.19;;;19.46;100.00
13732;BME280;6937;56.096;12.664;2022-07-17T12:40:04;102836.47;;;19.63;100.00
13732;BME280;6937;56.096;12.664;2022-07-17T12:42:30;102846.00;;;19.80;100.00
13732;BME280;6937;56.096;12.664;2022-07-17T12:44:55;102820.47;;;19.71;100.00
13732;BME280;6937;56.096;12.664;2022-07-17T12:47:20;102842.19;;;19.83;100.00